sensor_id;sensor_type;location;lat;lon;timestamp;temperature;humidity
65064;DHT22;51654;51.452;6.644;2022-10-26T08:13:17;16.50;66.60
65064;DHT22;51654;51.452;6.644;2022-10-26T08:15:44;16.70;65.70
65064;DHT22;51654;51.452;6.644;2022-10-26T08:18:11;17.20;64.30
65064;DHT22;51654;51.452;6.644;2022-10-26T08:20:38;17.70;63.30
65064;DHT22;51654;51.452;6.644;2022-10-26T08:25:34;18.70;62.10
65064;DHT22;51654;51.452;6.644;2022-10-26T08:28:01;19.20;59.20
65064;DHT22;51654;51.452;6.644;2022-10-26T08:30:29;19.40;57.70
65064;DHT22;51654;51.452;6.644;2022-10-26T08:32:59;19.40;56.50
65064;DHT22;51654;51.452;6.644;2022-10-26T08:35:26;19.40;55.60
65064;DHT22;51654;51.452;6.644;2022-10-26T08:37:54;19.50;55.40
65064;DHT22;51654;51.452;6.644;2022-10-26T08:40:21;19.50;54.90
65064;DHT22;51654;51.452;6.644;2022-10-26T08:42:50;19.40;55.30
65064;DHT22;51654;51.452;6.644;2022-10-26T08:48:06;19.50;54.90
65064;DHT22;51654;51.452;6.644;2022-10-26T08:50:38;19.60;54.40
65064;DHT22;51654;51.452;6.644;2022-10-26T08:53:13;19.70;54.30
65064;DHT22;51654;51.452;6.644;2022-10-26T08:55:45;19.60;54.20
65064;DHT22;51654;51.452;6.644;2022-10-26T08:58:14;19.60;54.10
65064;DHT22;51654;51.452;6.644;2022-10-26T09:00:41;19.70;54.10
65064;DHT22;51654;51.452;6.644;2022-10-26T09:03:12;19.90;55.10
65064;DHT22;51654;51.452;6.644;2022-10-26T09:08:28;19.90;53.60
65064;DHT22;51654;51.452;6.644;2022-10-26T09:11:05;20.10;53.90
65064;DHT22;51654;51.452;6.644;2022-10-26T09:21:25;21.00;52.00
65064;DHT22;51654;51.452;6.644;2022-10-26T09:26:40;21.20;51.20
65064;DHT22;51654;51.452;6.644;2022-10-26T09:29:12;21.20;50.70
65064;DHT22;51654;51.452;6.644;2022-10-26T09:31:40;20.90;50.60
65064;DHT22;51654;51.452;6.644;2022-10-26T09:34:17;20.80;51.60
65064;DHT22;51654;51.452;6.644;2022-10-26T09:36:45;21.00;51.60
65064;DHT22;51654;51.452;6.644;2022-10-26T09:39:14;21.10;50.20
65064;DHT22;51654;51.452;6.644;2022-10-26T09:41:45;21.10;50.50
65064;DHT22;51654;51.452;6.644;2022-10-26T09:44:18;20.90;50.40
65064;DHT22;51654;51.452;6.644;2022-10-26T09:47:05;20.40;51.70
65064;DHT22;51654;51.452;6.644;2022-10-26T09:49:40;20.20;52.80
65064;DHT22;51654;51.452;6.644;2022-10-26T09:52:09;20.30;52.80
65064;DHT22;51654;51.452;6.644;2022-10-26T09:54:36;20.30;52.20
65064;DHT22;51654;51.452;6.644;2022-10-26T09:57:03;20.00;52.50
65064;DHT22;51654;51.452;6.644;2022-10-26T09:59:30;20.00;52.70
65064;DHT22;51654;51.452;6.644;2022-10-26T10:01:59;19.90;53.00
65064;DHT22;51654;51.452;6.644;2022-10-26T10:04:29;19.90;54.00
65064;DHT22;51654;51.452;6.644;2022-10-26T10:09:26;20.20;53.70
65064;DHT22;51654;51.452;6.644;2022-10-26T10:11:54;20.30;52.70
65064;DHT22;51654;51.452;6.644;2022-10-26T10:14:32;20.10;53.20
65064;DHT22;51654;51.452;6.644;2022-10-26T10:17:06;20.10;53.30
65064;DHT22;51654;51.452;6.644;2022-10-26T10:19:37;19.90;53.60
65064;DHT22;51654;51.452;6.644;2022-10-26T10:22:11;19.70;54.30
65064;DHT22;51654;51.452;6.644;2022-10-26T10:24:42;19.70;54.50
65064;DHT22;51654;51.452;6.644;2022-10-26T10:27:18;19.90;54.70
65064;DHT22;51654;51.452;6.644;2022-10-26T10:29:45;19.90;54.80
65064;DHT22;51654;51.452;6.644;2022-10-26T10:32:14;20.00;54.70
65064;DHT22;51654;51.452;6.644;2022-10-26T10:34:41;20.20;54.20
65064;DHT22;51654;51.452;6.644;2022-10-26T10:39:54;20.50;54.20
65064;DHT22;51654;51.452;6.644;2022-10-26T10:42:26;20.50;53.60
65064;DHT22;51654;51.452;6.644;2022-10-26T10:44:54;20.40;53.90
65064;DHT22;51654;51.452;6.644;2022-10-26T10:47:32;20.30;54.40
65064;DHT22;51654;51.452;6.644;2022-10-26T10:50:02;20.30;54.30
65064;DHT22;51654;51.452;6.644;2022-10-26T10:52:35;20.40;54.50
65064;DHT22;51654;51.452;6.644;2022-10-26T11:00:28;20.40;55.40
65064;DHT22;51654;51.452;6.644;2022-10-26T11:08:43;20.40;55.20
65064;DHT22;51654;51.452;6.644;2022-10-26T11:11:15;20.50;55.50
65064;DHT22;51654;51.452;6.644;2022-10-26T11:13:46;20.60;54.30
65064;DHT22;51654;51.452;6.644;2022-10-26T11:16:15;20.60;54.30
65064;DHT22;51654;51.452;6.644;2022-10-26T11:18:46;20.40;54.40
65064;DHT22;51654;51.452;6.644;2022-10-26T11:21:17;20.30;55.00
65064;DHT22;51654;51.452;6.644;2022-10-26T11:23:49;20.40;55.10
65064;DHT22;51654;51.452;6.644;2022-10-26T11:26:32;20.40;55.30
65064;DHT22;51654;51.452;6.644;2022-10-26T11:31:29;20.50;55.10
65064;DHT22;51654;51.452;6.644;2022-10-26T11:36:23;20.70;54.20
65064;DHT22;51654;51.452;6.644;2022-10-26T11:38:54;20.80;54.40
65064;DHT22;51654;51.452;6.644;2022-10-26T11:41:32;20.90;54.70
65064;DHT22;51654;51.452;6.644;2022-10-26T11:44:04;21.00;54.00
65064;DHT22;51654;51.452;6.644;2022-10-26T11:46:39;21.00;54.20
65064;DHT22;51654;51.452;6.644;2022-10-26T11:49:14;21.10;53.80
65064;DHT22;51654;51.452;6.644;2022-10-26T11:54:20;21.20;54.10
65064;DHT22;51654;51.452;6.644;2022-10-26T11:56:52;21.40;54.80
65064;DHT22;51654;51.452;6.644;2022-10-26T12:02:01;22.00;54.40
65064;DHT22;51654;51.452;6.644;2022-10-26T12:04:33;22.00;54.80
65064;DHT22;51654;51.452;6.644;2022-10-26T12:07:01;22.20;53.90
65064;DHT22;51654;51.452;6.644;2022-10-26T12:09:30;22.50;53.60
65064;DHT22;51654;51.452;6.644;2022-10-26T12:17:04;22.10;51.70
65064;DHT22;51654;51.452;6.644;2022-10-26T12:19:40;22.00;52.20
65064;DHT22;51654;51.452;6.644;2022-10-26T12:22:10;21.70;53.00
65064;DHT22;51654;51.452;6.644;2022-10-26T12:24:42;21.70;53.20
65064;DHT22;51654;51.452;6.644;2022-10-26T12:27:28;21.60;53.10
65064;DHT22;51654;51.452;6.644;2022-10-26T12:37:54;21.20;55.10
65064;DHT22;51654;51.452;6.644;2022-10-26T12:40:38;21.20;54.40
65064;DHT22;51654;51.452;6.644;2022-10-26T12:45:42;21.00;54.60
65064;DHT22;51654;51.452;6.644;2022-10-26T12:48:37;21.00;55.70
65064;DHT22;51654;51.452;6.644;2022-10-26T12:56:22;21.30;54.70
65064;DHT22;51654;51.452;6.644;2022-10-26T13:04:20;21.40;55.00
65064;DHT22;51654;51.452;6.644;2022-10-26T13:09:39;21.80;54.70
65064;DHT22;51654;51.452;6.644;2022-10-26T13:12:10;21.90;54.20
65064;DHT22;51654;51.452;6.644;2022-10-26T13:14:52;21.90;53.30
65064;DHT22;51654;51.452;6.644;2022-10-26T13:17:22;21.70;53.40
65064;DHT22;51654;51.452;6.644;2022-10-26T13:19:50;21.60;54.00
65064;DHT22;51654;51.452;6.644;2022-10-26T13:22:20;21.60;54.50
65064;DHT22;51654;51.452;6.644;2022-10-26T13:24:48;21.60;54.00
65064;DHT22;51654;51.452;6.644;2022-10-26T13:30:16;21.50;54.70
65064;DHT22;51654;51.452;6.644;2022-10-26T13:32:51;21.70;54.80
65064;DHT22;51654;51.452;6.644;2022-10-26T13:35:19;21.90;54.90
65064;DHT22;51654;51.452;6.644;2022-10-26T13:37:50;22.20;54.70
65064;DHT22;51654;51.452;6.644;2022-10-26T13:40:22;22.40;53.50
65064;DHT22;51654;51.452;6.644;2022-10-26T13:42:54;22.50;53.00
65064;DHT22;51654;51.452;6.644;2022-10-26T13:45:28;22.50;53.00
65064;DHT22;51654;51.452;6.644;2022-10-26T13:48:30;22.60;52.60
65064;DHT22;51654;51.452;6.644;2022-10-26T13:51:02;22.80;52.60
65064;DHT22;51654;51.452;6.644;2022-10-26T13:53:41;22.80;51.40
65064;DHT22;51654;51.452;6.644;2022-10-26T13:56:16;22.70;50.70
65064;DHT22;51654;51.452;6.644;2022-10-26T13:59:01;22.60;51.50
65064;DHT22;51654;51.452;6.644;2022-10-26T14:01:30;22.50;51.90
65064;DHT22;51654;51.452;6.644;2022-10-26T14:03:57;22.50;51.60
65064;DHT22;51654;51.452;6.644;2022-10-26T14:08:57;22.30;52.60
65064;DHT22;51654;51.452;6.644;2022-10-26T14:12:08;22.10;51.50
65064;DHT22;51654;51.452;6.644;2022-10-26T14:14:17;21.80;51.90
65064;DHT22;51654;51.452;6.644;2022-10-26T14:16:44;21.60;52.90
65064;DHT22;51654;51.452;6.644;2022-10-26T14:19:13;21.50;53.30
65064;DHT22;51654;51.452;6.644;2022-10-26T14:21:41;21.50;53.70
65064;DHT22;51654;51.452;6.644;2022-10-26T14:24:18;21.50;52.70
65064;DHT22;51654;51.452;6.644;2022-10-26T14:27:01;21.50;53.30
65064;DHT22;51654;51.452;6.644;2022-10-26T14:29:31;21.40;52.90
65064;DHT22;51654;51.452;6.644;2022-10-26T14:31:58;21.40;52.50
65064;DHT22;51654;51.452;6.644;2022-10-26T14:34:24;21.40;53.70
65064;DHT22;51654;51.452;6.644;2022-10-26T14:36:53;21.40;53.00
65064;DHT22;51654;51.452;6.644;2022-10-26T14:41:51;21.20;52.90
65064;DHT22;51654;51.452;6.644;2022-10-26T14:44:19;21.00;53.70
65064;DHT22;51654;51.452;6.644;2022-10-26T14:46:46;20.90;54.60
65064;DHT22;51654;51.452;6.644;2022-10-26T14:49:20;20.90;53.70
65064;DHT22;51654;51.452;6.644;2022-10-26T14:51:48;20.70;53.80
65064;DHT22;51654;51.452;6.644;2022-10-26T14:54:19;20.40;54.30
65064;DHT22;51654;51.452;6.644;2022-10-26T14:56:47;20.30;55.80
65064;DHT22;51654;51.452;6.644;2022-10-26T15:04:34;19.80;56.50
65064;DHT22;51654;51.452;6.644;2022-10-26T15:09:48;19.60;58.50
65064;DHT22;51654;51.452;6.644;2022-10-26T15:14:46;19.40;58.00
65064;DHT22;51654;51.452;6.644;2022-10-26T15:17:18;19.20;58.50
65064;DHT22;51654;51.452;6.644;2022-10-26T15:19:45;19.10;59.20
65064;DHT22;51654;51.452;6.644;2022-10-26T15:22:23;19.10;59.70
65064;DHT22;51654;51.452;6.644;2022-10-26T15:24:57;19.00;60.10
65064;DHT22;51654;51.452;6.644;2022-10-26T15:27:25;19.00;60.10
65064;DHT22;51654;51.452;6.644;2022-10-26T15:30:06;19.00;60.40
65064;DHT22;51654;51.452;6.644;2022-10-26T15:32:33;18.90;60.60
65064;DHT22;51654;51.452;6.644;2022-10-26T15:35:14;18.80;60.70
65064;DHT22;51654;51.452;6.644;2022-10-26T15:37:41;18.70;61.00
65064;DHT22;51654;51.452;6.644;2022-10-26T15:40:08;18.60;61.60
65064;DHT22;51654;51.452;6.644;2022-10-26T15:42:35;18.50;61.40
65064;DHT22;51654;51.452;6.644;2022-10-26T15:45:04;18.50;62.20
65064;DHT22;51654;51.452;6.644;2022-10-26T15:47:39;18.50;62.90
65064;DHT22;51654;51.452;6.644;2022-10-26T15:50:10;18.40;62.70
65064;DHT22;51654;51.452;6.644;2022-10-26T15:52:37;18.40;62.60
65064;DHT22;51654;51.452;6.644;2022-10-26T15:55:04;18.30;62.40
65064;DHT22;51654;51.452;6.644;2022-10-26T15:57:31;18.20;63.20
65064;DHT22;51654;51.452;6.644;2022-10-26T15:59:58;18.20;63.20
65064;DHT22;51654;51.452;6.644;2022-10-26T16:02:25;18.10;62.90
65064;DHT22;51654;51.452;6.644;2022-10-26T16:04:53;18.00;63.20
65064;DHT22;51654;51.452;6.644;2022-10-26T16:07:19;18.00;63.80
65064;DHT22;51654;51.452;6.644;2022-10-26T16:09:46;18.00;64.40
65064;DHT22;51654;51.452;6.644;2022-10-26T16:12:13;18.00;64.90
65064;DHT22;51654;51.452;6.644;2022-10-26T16:14:40;17.90;64.80
65064;DHT22;51654;51.452;6.644;2022-10-26T16:17:27;17.90;64.60
65064;DHT22;51654;51.452;6.644;2022-10-26T16:19:54;17.80;63.90
65064;DHT22;51654;51.452;6.644;2022-10-26T16:22:20;17.70;64.50
65064;DHT22;51654;51.452;6.644;2022-10-26T16:24:47;17.60;64.50
65064;DHT22;51654;51.452;6.644;2022-10-26T16:27:14;17.50;64.70
65064;DHT22;51654;51.452;6.644;2022-10-26T16:29:41;17.50;64.40
65064;DHT22;51654;51.452;6.644;2022-10-26T16:32:08;17.40;64.70
65064;DHT22;51654;51.452;6.644;2022-10-26T16:34:34;17.40;65.60
65064;DHT22;51654;51.452;6.644;2022-10-26T16:37:01;17.40;65.10
65064;DHT22;51654;51.452;6.644;2022-10-26T16:39:28;17.30;65.30
65064;DHT22;51654;51.452;6.644;2022-10-26T16:41:55;17.30;65.80
65064;DHT22;51654;51.452;6.644;2022-10-26T16:44:22;17.20;65.20
65064;DHT22;51654;51.452;6.644;2022-10-26T16:46:48;17.20;65.70
65064;DHT22;51654;51.452;6.644;2022-10-26T16:49:15;17.20;67.20
65064;DHT22;51654;51.452;6.644;2022-10-26T16:51:43;17.30;68.50
65064;DHT22;51654;51.452;6.644;2022-10-26T16:54:10;17.30;68.70
65064;DHT22;51654;51.452;6.644;2022-10-26T16:56:37;17.40;69.40
65064;DHT22;51654;51.452;6.644;2022-10-26T16:59:04;17.40;69.00
65064;DHT22;51654;51.452;6.644;2022-10-26T17:01:30;17.30;68.10
65064;DHT22;51654;51.452;6.644;2022-10-26T17:03:57;17.30;67.70
65064;DHT22;51654;51.452;6.644;2022-10-26T17:06:26;17.30;68.30
65064;DHT22;51654;51.452;6.644;2022-10-26T17:08:53;17.30;69.00
65064;DHT22;51654;51.452;6.644;2022-10-26T17:11:20;17.20;68.70
65064;DHT22;51654;51.452;6.644;2022-10-26T17:13:47;17.20;68.50
65064;DHT22;51654;51.452;6.644;2022-10-26T17:16:19;17.20;69.20
65064;DHT22;51654;51.452;6.644;2022-10-26T17:18:46;17.20;69.80
65064;DHT22;51654;51.452;6.644;2022-10-26T17:21:14;17.10;69.40
65064;DHT22;51654;51.452;6.644;2022-10-26T17:23:41;17.00;68.50
65064;DHT22;51654;51.452;6.644;2022-10-26T17:26:09;17.00;69.00
65064;DHT22;51654;51.452;6.644;2022-10-26T17:28:36;17.00;69.60
65064;DHT22;51654;51.452;6.644;2022-10-26T17:31:07;17.00;68.80
65064;DHT22;51654;51.452;6.644;2022-10-26T17:33:35;16.90;68.50
65064;DHT22;51654;51.452;6.644;2022-10-26T17:36:03;16.90;68.20
65064;DHT22;51654;51.452;6.644;2022-10-26T17:38:31;16.80;67.70
65064;DHT22;51654;51.452;6.644;2022-10-26T17:41:01;16.70;68.10
65064;DHT22;51654;51.452;6.644;2022-10-26T17:43:29;16.70;68.20
65064;DHT22;51654;51.452;6.644;2022-10-26T17:45:57;16.70;68.60
65064;DHT22;51654;51.452;6.644;2022-10-26T17:48:24;16.70;68.40
65064;DHT22;51654;51.452;6.644;2022-10-26T17:50:51;16.70;68.10
65064;DHT22;51654;51.452;6.644;2022-10-26T17:53:18;16.70;68.00
65064;DHT22;51654;51.452;6.644;2022-10-26T17:55:45;16.70;67.90
65064;DHT22;51654;51.452;6.644;2022-10-26T17:58:11;16.70;68.30
65064;DHT22;51654;51.452;6.644;2022-10-26T18:00:38;16.60;68.40
65064;DHT22;51654;51.452;6.644;2022-10-26T18:03:05;16.50;68.80
65064;DHT22;51654;51.452;6.644;2022-10-26T18:05:34;16.50;68.10
65064;DHT22;51654;51.452;6.644;2022-10-26T18:08:01;16.40;68.60
65064;DHT22;51654;51.452;6.644;2022-10-26T18:10:28;16.40;68.40
65064;DHT22;51654;51.452;6.644;2022-10-26T18:13:03;16.30;69.90
65064;DHT22;51654;51.452;6.644;2022-10-26T18:15:30;16.40;70.70
65064;DHT22;51654;51.452;6.644;2022-10-26T18:18:00;16.40;72.50
65064;DHT22;51654;51.452;6.644;2022-10-26T18:20:27;16.50;73.40
65064;DHT22;51654;51.452;6.644;2022-10-26T18:22:54;16.70;73.90
65064;DHT22;51654;51.452;6.644;2022-10-26T18:25:21;16.80;73.20
65064;DHT22;51654;51.452;6.644;2022-10-26T18:27:47;16.80;71.10
65064;DHT22;51654;51.452;6.644;2022-10-26T18:30:14;16.70;70.40
65064;DHT22;51654;51.452;6.644;2022-10-26T18:32:41;16.60;70.80
65064;DHT22;51654;51.452;6.644;2022-10-26T18:35:08;16.50;69.90
65064;DHT22;51654;51.452;6.644;2022-10-26T18:37:35;16.30;68.80
65064;DHT22;51654;51.452;6.644;2022-10-26T18:40:02;16.10;68.60
65064;DHT22;51654;51.452;6.644;2022-10-26T18:42:29;15.90;68.80
65064;DHT22;51654;51.452;6.644;2022-10-26T18:44:56;15.80;69.00
65064;DHT22;51654;51.452;6.644;2022-10-26T18:47:30;15.60;69.20
65064;DHT22;51654;51.452;6.644;2022-10-26T18:49:57;15.50;69.50
65064;DHT22;51654;51.452;6.644;2022-10-26T18:52:24;15.40;69.80
65064;DHT22;51654;51.452;6.644;2022-10-26T18:54:53;15.40;69.90
65064;DHT22;51654;51.452;6.644;2022-10-26T18:57:20;15.30;70.10
65064;DHT22;51654;51.452;6.644;2022-10-26T18:59:52;15.30;70.30
65064;DHT22;51654;51.452;6.644;2022-10-26T19:02:20;15.20;70.50
65064;DHT22;51654;51.452;6.644;2022-10-26T19:04:49;15.30;70.50
65064;DHT22;51654;51.452;6.644;2022-10-26T19:07:18;15.20;70.60
65064;DHT22;51654;51.452;6.644;2022-10-26T19:09:48;15.20;70.70
65064;DHT22;51654;51.452;6.644;2022-10-26T19:12:15;15.10;70.80
65064;DHT22;51654;51.452;6.644;2022-10-26T19:14:42;15.00;71.00
65064;DHT22;51654;51.452;6.644;2022-10-26T19:17:09;15.00;71.20
65064;DHT22;51654;51.452;6.644;2022-10-26T19:19:36;15.00;71.20
65064;DHT22;51654;51.452;6.644;2022-10-26T19:22:03;15.00;71.50
65064;DHT22;51654;51.452;6.644;2022-10-26T19:24:30;14.90;71.60
65064;DHT22;51654;51.452;6.644;2022-10-26T19:26:56;14.90;71.50
65064;DHT22;51654;51.452;6.644;2022-10-26T19:29:23;14.90;71.60
65064;DHT22;51654;51.452;6.644;2022-10-26T19:31:50;14.80;71.70
65064;DHT22;51654;51.452;6.644;2022-10-26T19:34:18;14.80;71.90
65064;DHT22;51654;51.452;6.644;2022-10-26T19:36:45;14.80;72.10
65064;DHT22;51654;51.452;6.644;2022-10-26T19:39:16;14.70;72.00
65064;DHT22;51654;51.452;6.644;2022-10-26T19:41:43;14.70;72.20
65064;DHT22;51654;51.452;6.644;2022-10-26T19:44:11;14.70;72.30
65064;DHT22;51654;51.452;6.644;2022-10-26T19:46:39;14.60;72.50
65064;DHT22;51654;51.452;6.644;2022-10-26T19:49:06;14.60;72.60
65064;DHT22;51654;51.452;6.644;2022-10-26T19:51:33;14.50;72.70
65064;DHT22;51654;51.452;6.644;2022-10-26T19:54:00;14.50;72.80
65064;DHT22;51654;51.452;6.644;2022-10-26T19:56:30;14.50;72.90
65064;DHT22;51654;51.452;6.644;2022-10-26T19:58:56;14.50;73.00
65064;DHT22;51654;51.452;6.644;2022-10-26T20:01:23;14.50;73.00
65064;DHT22;51654;51.452;6.644;2022-10-26T20:03:51;14.50;73.00
65064;DHT22;51654;51.452;6.644;2022-10-26T20:06:18;14.50;73.40
65064;DHT22;51654;51.452;6.644;2022-10-26T20:08:45;14.40;73.40
65064;DHT22;51654;51.452;6.644;2022-10-26T20:11:13;14.50;73.40
65064;DHT22;51654;51.452;6.644;2022-10-26T20:13:43;14.40;73.50
65064;DHT22;51654;51.452;6.644;2022-10-26T20:16:10;14.40;73.50
65064;DHT22;51654;51.452;6.644;2022-10-26T20:18:38;14.40;73.50
65064;DHT22;51654;51.452;6.644;2022-10-26T20:21:11;14.40;73.50
65064;DHT22;51654;51.452;6.644;2022-10-26T20:23:41;14.40;73.50
65064;DHT22;51654;51.452;6.644;2022-10-26T21:47:15;13.50;76.30
65064;DHT22;51654;51.452;6.644;2022-10-26T21:49:41;13.50;76.30
65064;DHT22;51654;51.452;6.644;2022-10-26T21:52:08;13.40;76.30
65064;DHT22;51654;51.452;6.644;2022-10-26T21:54:35;13.40;76.40
65064;DHT22;51654;51.452;6.644;2022-10-26T21:57:02;13.40;76.50
65064;DHT22;51654;51.452;6.644;2022-10-26T21:59:29;13.40;76.50
65064;DHT22;51654;51.452;6.644;2022-10-26T22:01:56;13.30;76.60
65064;DHT22;51654;51.452;6.644;2022-10-26T22:04:23;13.30;76.70
65064;DHT22;51654;51.452;6.644;2022-10-26T22:06:49;13.30;76.80
65064;DHT22;51654;51.452;6.644;2022-10-26T22:09:16;13.30;77.00
65064;DHT22;51654;51.452;6.644;2022-10-26T22:11:43;13.20;77.10
65064;DHT22;51654;51.452;6.644;2022-10-26T22:14:11;13.20;77.50
65064;DHT22;51654;51.452;6.644;2022-10-26T22:16:38;13.20;77.70
65064;DHT22;51654;51.452;6.644;2022-10-26T22:19:05;13.20;77.70
65064;DHT22;51654;51.452;6.644;2022-10-26T22:21:34;13.10;77.70
65064;DHT22;51654;51.452;6.644;2022-10-26T22:24:01;13.10;77.70
65064;DHT22;51654;51.452;6.644;2022-10-26T22:26:28;13.10;77.70
65064;DHT22;51654;51.452;6.644;2022-10-26T22:28:55;13.00;77.60
65064;DHT22;51654;51.452;6.644;2022-10-26T22:31:26;13.10;77.50
65064;DHT22;51654;51.452;6.644;2022-10-26T22:33:55;13.00;77.50
65064;DHT22;51654;51.452;6.644;2022-10-26T22:36:23;13.00;77.40
65064;DHT22;51654;51.452;6.644;2022-10-26T22:38:50;13.00;77.40
65064;DHT22;51654;51.452;6.644;2022-10-26T22:41:17;13.10;77.70
65064;DHT22;51654;51.452;6.644;2022-10-26T22:43:44;13.00;77.40
65064;DHT22;51654;51.452;6.644;2022-10-26T22:46:12;13.00;77.20
65064;DHT22;51654;51.452;6.644;2022-10-26T22:48:39;13.00;77.10
65064;DHT22;51654;51.452;6.644;2022-10-26T22:51:07;13.00;77.10
65064;DHT22;51654;51.452;6.644;2022-10-26T22:53:34;13.00;77.10
65064;DHT22;51654;51.452;6.644;2022-10-26T22:56:01;13.00;77.20
65064;DHT22;51654;51.452;6.644;2022-10-26T22:58:28;13.00;77.30
65064;DHT22;51654;51.452;6.644;2022-10-26T23:01:05;13.00;77.20
65064;DHT22;51654;51.452;6.644;2022-10-26T23:03:33;13.00;77.20
65064;DHT22;51654;51.452;6.644;2022-10-26T23:06:00;13.00;77.20
65064;DHT22;51654;51.452;6.644;2022-10-26T23:08:27;12.90;77.30
65064;DHT22;51654;51.452;6.644;2022-10-26T23:10:57;12.90;77.40
65064;DHT22;51654;51.452;6.644;2022-10-26T23:13:24;12.90;77.60
65064;DHT22;51654;51.452;6.644;2022-10-26T23:15:51;12.90;77.60
65064;DHT22;51654;51.452;6.644;2022-10-26T23:18:18;12.90;77.70
65064;DHT22;51654;51.452;6.644;2022-10-26T23:20:49;12.80;77.80
65064;DHT22;51654;51.452;6.644;2022-10-26T23:23:16;12.80;77.90
65064;DHT22;51654;51.452;6.644;2022-10-26T23:25:43;12.80;78.00
65064;DHT22;51654;51.452;6.644;2022-10-26T23:28:10;12.80;78.20
65064;DHT22;51654;51.452;6.644;2022-10-26T23:30:37;12.70;78.20
65064;DHT22;51654;51.452;6.644;2022-10-26T23:33:03;12.70;78.30
65064;DHT22;51654;51.452;6.644;2022-10-26T23:35:30;12.70;78.50
65064;DHT22;51654;51.452;6.644;2022-10-26T23:37:57;12.60;78.70
65064;DHT22;51654;51.452;6.644;2022-10-26T23:40:25;12.60;78.80
65064;DHT22;51654;51.452;6.644;2022-10-26T23:42:52;12.60;78.80
65064;DHT22;51654;51.452;6.644;2022-10-26T23:45:19;12.60;79.00
65064;DHT22;51654;51.452;6.644;2022-10-26T23:47:46;12.50;79.00
65064;DHT22;51654;51.452;6.644;2022-10-26T23:50:13;12.50;79.30
65064;DHT22;51654;51.452;6.644;2022-10-26T23:52:40;12.50;79.40
65064;DHT22;51654;51.452;6.644;2022-10-26T23:55:07;12.50;79.40
65064;DHT22;51654;51.452;6.644;2022-10-26T23:57:34;12.50;79.50
